• Join FlightAware (Why Join?)
  • Login
  • US Flag 
04:11AM EDT


 

Airport Tracker/Info


-or-


 

Live Flight TrackerFlight Track Log ✈ XOJ552 ✈ 07-Jul-2013 ✈ KCOE - KSNA

Flight Track Log - Related Links

Times and Time Zones

All times are in EDT time to prevent confusion due to time zone crossing. See the XOJ552 flight status page for this flight to view local times or setup timezone preferences in your user account.

Time Position Orientation Groundspeed Altitude Reporting Facility
EDT Latitude Longitude Course Direction KTS MPH feet Rate Location/Type
03:35PM 47.7856 -116.7856 332° Northwest 196 226 3,700  Level Seattle Center
03:36PM 47.8311 -116.8211 332° Northwest 245 282 7,400 4,020 Climbing Seattle Center
03:37PM 47.7756 -116.9122 228° Southwest 271 312 11,900 4,140 Climbing Seattle Center
03:39PM 47.7139 -116.9769 215° Southwest 311 358 15,900 3,960 Climbing Seattle Center
03:40PM 47.6939 -117.0867 255° West 299 344 20,100 3,060 Climbing Seattle Center
03:41PM 47.6122 -117.1369 203° Southwest 333 383 22,200 1,380 Climbing Seattle Center
03:42PM 47.5097 -117.1597 189° South 383 441 23,000 900 Climbing Seattle Center
03:43PM 47.3822 -117.2253 199° South 404 465 24,100 1,560 Climbing Seattle Center
03:44PM 47.2850 -117.3131 211° Southwest 410 472 26,200 1,980 Climbing Seattle Center
03:45PM 47.1883 -117.4122 215° Southwest 422 486 28,200 1,920 Climbing Seattle Center
03:46PM 47.0764 -117.4700 199° South 433 498 30,200 1,860 Climbing Seattle Center
03:47PM 46.9597 -117.5103 193° South 434 499 32,000 1,800 Climbing Seattle Center
03:48PM 46.8411 -117.5475 192° South 436 502 34,000 1,920 Climbing Seattle Center
03:49PM 46.7258 -117.5858 193° South 428 493 36,000 1,860 Climbing Seattle Center
03:50PM 46.6136 -117.6222 193° South 415 478 37,900 1,560 Climbing Seattle Center
03:51PM 46.5031 -117.6597 193° South 410 472 39,300 1,260 Climbing Seattle Center
03:52PM 46.3722 -117.7011 192° South 404 465 40,500 780 Climbing Seattle Center
03:53PM 46.2597 -117.7361 192° South 412 474 41,000 660 Climbing Seattle Center
03:54PM 46.1469 -117.7725 193° South 415 478 41,900 720 Climbing Seattle Center
03:55PM 46.0342 -117.8072 192° South 416 479 42,500 540 Climbing Seattle Center
03:56PM 45.9200 -117.8453 193° South 420 483 43,000 240 Climbing Seattle Center
03:57PM 45.8033 -117.8839 193° South 428 493 43,000  Level Seattle Center
03:58PM 45.6853 -117.9206 192° South 433 498 43,000  Level Seattle Center
03:59PM 45.5703 -117.9542 192° South 428 493 43,000  Level Seattle Center
04:00PM 45.4544 -117.9911 193° South 426 490 43,000  Level Seattle Center
04:01PM 45.3136 -118.0344 192° South 430 495 43,000  Level Seattle Center
04:02PM 45.1964 -118.0708 192° South 430 495 43,000  Level Seattle Center
04:03PM 45.0733 -118.1081 192° South 434 499 43,000  Level Seattle Center
04:04PM 44.9592 -118.1422 192° South 437 503 43,000  Level Seattle Center
04:05PM 44.8433 -118.1786 193° South 425 489 43,000  Level Seattle Center
04:06PM 44.7269 -118.2131 192° South 426 490 43,000  Level Seattle Center
04:07PM 44.6119 -118.2494 193° South 424 488 43,000  Level Seattle Center
04:08PM 44.4972 -118.2833 192° South 423 487 43,000  Level Seattle Center
04:09PM 44.3811 -118.3183 192° South 426 490 43,000  Level Seattle Center
04:10PM 44.2669 -118.3517 192° South 422 486 43,000  Level Seattle Center
04:11PM 44.1517 -118.3850 192° South 422 486 43,000  Level Seattle Center
04:12PM 44.0236 -118.4242 192° South 422 486 43,000  Level Seattle Center
04:13PM 43.8964 -118.4622 192° South 420 483 43,000  Level Seattle Center
04:14PM 43.7864 -118.4942 192° South 421 484 43,000  Level Seattle Center
04:15PM 43.6775 -118.5264 192° South 420 483 43,000  Level Seattle Center
04:16PM 43.5492 -118.5636 192° South 421 484 43,000  Level Seattle Center
04:17PM 43.4397 -118.5950 192° South 421 484 43,000  Level Seattle Center
04:18PM 43.3119 -118.6331 192° South 420 483 43,000  Level Seattle Center
04:19PM 43.2017 -118.6636 191° South 422 486 43,000  Level Seattle Center
04:20PM 43.0919 -118.6947 192° South 422 486 43,000  Level Seattle Center
04:22PM 42.9367 -118.7414 192° South 422 486 43,000  Level Salt Lake Center
04:23PM 42.7981 -118.7797 191° South 423 487 43,000  Level Salt Lake Center
04:24PM 42.6822 -118.8122 192° South 425 489 43,000  Level Salt Lake Center
04:25PM 42.5669 -118.8419 191° South 423 487 43,000  Level Salt Lake Center
04:26PM 42.4514 -118.8789 193° South 424 488 43,000  Level Salt Lake Center
04:27PM 42.3186 -118.9114 190° South 425 489 43,000  Level Salt Lake Center
04:28PM 42.2086 -118.9428 192° South 423 487 43,000  Level Salt Lake Center
04:29PM 42.0989 -118.9742 192° South 421 484 43,000  Level Salt Lake Center
04:30PM 41.9719 -119.0097 192° South 419 482 43,000  Level Salt Lake Center
04:31PM 41.8617 -119.0403 192° South 421 484 43,000  Level Salt Lake Center
04:32PM 41.7361 -119.0742 191° South 415 478 43,000  Level Salt Lake Center
04:33PM 41.6256 -119.1042 191° South 421 484 43,000  Level Salt Lake Center
04:34PM 41.4994 -119.1381 191° South 417 480 43,000  Level Salt Lake Center
04:35PM 41.3914 -119.1681 192° South 414 476 43,000  Level Salt Lake Center
04:36PM 41.2653 -119.2028 192° South 414 476 43,000  Level Salt Lake Center
04:37PM 41.1564 -119.2319 191° South 416 479 43,000  Level Salt Lake Center
04:38PM 41.0283 -119.2653 191° South 418 481 43,000  Level Salt Lake Center
04:39PM 40.9192 -119.2956 192° South 418 481 43,000  Level Salt Lake Center
04:40PM 40.7911 -119.3289 191° South 419 482 43,000  Level Salt Lake Center
04:41PM 40.6817 -119.3586 192° South 420 483 43,000  Level Salt Lake Center
04:42PM 40.5678 -119.3875 191° South 419 482 43,000  Level Salt Lake Center
04:43PM 40.4539 -119.4181 192° South 419 482 43,000  Level Salt Lake Center
04:45PM 40.3156 -119.4542 191° South 423 487 43,000  Level Oakland Center
04:46PM 40.2025 -119.4839 191° South 417 480 43,000  Level Oakland Center
04:47PM 40.0872 -119.5144 191° South 422 486 43,000  Level Oakland Center
04:48PM 39.9736 -119.5431 191° South 417 480 43,000  Level Oakland Center
04:49PM 39.8372 -119.5778 191° South 418 481 43,000  Level Oakland Center
04:50PM 39.7239 -119.6069 191° South 416 479 43,000  Level Oakland Center
04:51PM 39.6117 -119.6375 192° South 415 478 43,000  Level Oakland Center
04:52PM 39.4964 -119.6567 187° South 420 483 43,000  Level Oakland Center
04:53PM 39.3789 -119.6533 179° South 424 488 43,000  Level Oakland Center
04:54PM 39.2600 -119.6497 179° South 429 494 43,000  Level Oakland Center
04:55PM 39.1169 -119.6450 179° South 429 494 43,000  Level Oakland Center
04:56PM 38.9989 -119.6419 179° South 429 494 43,000  Level Oakland Center
04:57PM 38.8817 -119.6383 179° South 423 487 43,000  Level Oakland Center
04:58PM 38.7636 -119.6358 179° South 425 489 43,000  Level Oakland Center
04:59PM 38.6458 -119.6325 179° South 423 487 43,000  Level Oakland Center
05:00PM 38.5297 -119.6297 179° South 421 484 43,000  Level Oakland Center
05:01PM 38.4028 -119.6272 179° South 418 481 43,000  Level Oakland Center
05:02PM 38.2850 -119.6239 179° South 421 484 43,000  Level Oakland Center
05:03PM 38.1681 -119.6214 179° South 419 482 43,000  Level Oakland Center
05:04PM 38.0514 -119.6181 179° South 417 480 43,000  Level Oakland Center
05:05PM 37.9100 -119.6144 179° South 420 483 43,000  Level Oakland Center
05:06PM 37.7933 -119.6106 178° South 421 484 43,000  Level Oakland Center
05:07PM 37.6758 -119.6083 179° South 421 484 43,000  Level Oakland Center
05:08PM 37.5594 -119.6056 179° South 417 480 43,000  Level Oakland Center
05:09PM 37.4408 -119.6028 179° South 421 484 43,000  Level Oakland Center
05:10PM 37.3197 -119.5992 179° South 421 484 43,000  Level Oakland Center
05:11PM 37.2019 -119.5964 179° South 423 487 43,000  Level Oakland Center
05:12PM 37.0839 -119.5944 179° South 423 487 43,000  Level Oakland Center
05:13PM 36.9658 -119.5961 181° South 423 487 43,000 -60 Level Oakland Center
05:14PM 36.8239 -119.5989 181° South 426 490 42,900  Descending Oakland Center
05:15PM 36.7056 -119.6022 181° South 425 489 43,000  Climbing Oakland Center
05:17PM 36.5892 -119.6033 180° South 418 481 43,000  Level Oakland Center
05:18PM 36.4717 -119.6058 181° South 420 483 43,000  Level Oakland Center
05:19PM 36.3547 -119.6081 181° South 418 481 43,000  Level Oakland Center
05:20PM 36.2383 -119.6106 181° South 416 479 43,000  Level Oakland Center
05:21PM 36.1222 -119.6117 180° South 415 478 43,000  Level Oakland Center
05:22PM 35.9822 -119.6142 181° South 416 479 43,000  Level Oakland Center
05:23PM 35.8658 -119.6189 182° South 416 479 43,000  Level Oakland Center
05:24PM 35.7500 -119.6211 181° South 415 478 43,000  Level Oakland Center
05:25PM 35.6322 -119.6258 182° South 420 483 43,000 -540 Level Oakland Center
05:26PM 35.5150 -119.5994 170° South 436 502 42,000 -1,020 Descending Oakland Center
05:27PM 35.4011 -119.5367 156° South 447 514 41,000 -540 Descending Oakland Center
05:28PM 35.2878 -119.4742 156° South 446 513 41,000 -420 Level Oakland Center
05:29PM 35.1744 -119.4122 156° South 445 512 40,200 -1,260 Descending Oakland Center
05:30PM 35.0619 -119.3508 156° South 442 509 38,500 -2,280 Descending Oakland Center
05:31PM 34.9264 -119.2758 156° South 444 511 35,600 -2,520 Descending Oakland Center
05:32PM 34.8156 -119.2150 156° South 441 507 33,300 -2,280 Descending Oakland Center
05:33PM 34.7036 -119.1536 156° South 440 506 30,900 -2,280 Descending Oakland Center
05:34PM 34.5431 -119.0681 156° South 462 532 27,600 -2,340 Descending Los Angeles Center
05:36PM 34.4033 -118.9914 156° South 460 529 24,700 -2,580 Descending Los Angeles Center
05:37PM 34.2711 -118.9172 155° Southeast 430 495 21,800 -2,580 Descending Los Angeles Center
05:38PM 34.1656 -118.8600 156° South 417 480 19,400 -2,400 Descending Los Angeles Center
05:39PM 34.0642 -118.8042 155° Southeast 402 463 16,900 -2,520 Descending Los Angeles Center
05:40PM 33.9625 -118.7489 156° South 363 418 14,200 -1,440 Descending Los Angeles Center
05:41PM 33.8672 -118.7022 158° South 349 402 14,000 -180 Descending Los Angeles Center
05:42PM 33.7703 -118.6686 164° South 365 420 13,900 -900 Descending Los Angeles Center
05:43PM 33.6842 -118.6369 163° South 326 375 12,200 -1,800 Descending Los Angeles Center
05:44PM 33.6258 -118.5669 135° Southeast 304 350 10,200 -1,800 Descending Los Angeles Center
05:45PM 33.5747 -118.4928 130° Southeast 293 337 8,500 -1,920 Descending Los Angeles Center
05:46PM 33.5294 -118.4008 121° Southeast 286 329 6,300 -1,740 Descending Los Angeles Center
05:47PM 33.5389 -118.3092 83° East 283 326 5,000 -660 Descending Los Angeles Center
05:48PM 33.5500 -118.2183 82° East 281 323 5,000  Level Los Angeles Center
05:49PM 33.5597 -118.1253 83° East 282 325 5,000  Level Los Angeles Center
05:50PM 33.5736 -118.0153 81° East 280 322 5,000  Level Los Angeles Center
05:51PM 33.6442 -117.9825 21° North 230 265 5,000  Level Los Angeles Center
05:52PM 33.6667 -117.9667 30° Northeast 198 228 5,000  Level Southern California TRACON
05:53PM 33.7167 -117.9333 29° Northeast 190 219 5,000 -420 Level Southern California TRACON
05:54PM 33.7667 -117.9167 15° North 182 209 4,200 -1,080 Descending Southern California TRACON
05:55PM 33.7667 -117.8667 90° East 190 219 2,900 -1,260 Descending Southern California TRACON
05:56PM 33.7167 -117.8333 151° Southeast 179 206 1,700 -1,320 Descending Southern California TRACON
05:57PM 33.6833 -117.8667 220° Southwest 129 148 300 -1,440 Descending Southern California TRACON
06:00PM 33.6757 -117.8682 180° South  Level Estimated